Time;durP1;ratioP1;P1;durP2;ratioP2;P2;SDS_P1;SDS_P2;PMS_P1;PMS_P2;Temp;Humidity;BMP_temperature;BMP_pressure;BME280_temperature;BME280_humidity;BME280_pressure;Samples;Min_cycle;Max_cycle;Signal;HPM_P1;HPM_P2
2022/10/11 00:01:43;;;;;;;;;;;24.50;99.90;;;;;;4193141;28;19933;-69
2022/10/11 00:03:49;;;;;;;;;;;24.60;99.90;;;;;;4192104;28;19932;-69
2022/10/11 00:05:56;;;;;;;;;;;24.70;99.90;;;;;;4174833;28;20277;-70
2022/10/11 00:07:59;;;;;;;;;;;24.60;99.90;;;;;;4182589;28;19983;-70
2022/10/11 00:10:05;;;;;;;;;;;24.50;99.90;;;;;;4193228;28;19933;-69
2022/10/11 00:12:11;;;;;;;;;;;24.60;99.90;;;;;;4175222;28;19928;-70
2022/10/11 00:14:15;;;;;;;;;;;24.80;99.90;;;;;;4192831;28;19929;-69
2022/10/11 00:16:21;;;;;;;;;;;24.80;99.90;;;;;;4192451;28;20379;-70
2022/10/11 00:18:27;;;;;;;;;;;24.80;99.90;;;;;;4174593;28;19936;-70
2022/10/11 00:20:31;;;;;;;;;;;24.90;99.90;;;;;;4192738;28;19971;-70
2022/10/11 00:22:37;;;;;;;;;;;25.10;99.90;;;;;;4174884;28;20594;-70
2022/10/11 00:24:43;;;;;;;;;;;24.90;99.90;;;;;;4174854;28;19928;-71
2022/10/11 00:26:47;;;;;;;;;;;24.90;99.90;;;;;;4194010;28;20372;-70
2022/10/11 00:28:55;;;;;;;;;;;25.00;99.90;;;;;;4196360;28;20019;-70
2022/10/11 00:31:03;;;;;;;;;;;25.00;99.70;;;;;;4143591;28;20475;-70
2022/10/11 00:33:08;;;;;;;;;;;25.10;99.80;;;;;;4195993;28;19935;-70
2022/10/11 00:35:12;;;;;;;;;;;25.00;99.30;;;;;;4195857;28;19935;-70
2022/10/11 00:37:16;;;;;;;;;;;25.00;98.90;;;;;;4178812;28;19929;-70
2022/10/11 00:39:20;;;;;;;;;;;25.10;98.30;;;;;;4194092;28;20373;-70
2022/10/11 00:41:26;;;;;;;;;;;24.90;98.80;;;;;;4196355;28;19934;-70
2022/10/11 00:43:32;;;;;;;;;;;25.10;98.60;;;;;;4196450;28;19964;-70
2022/10/11 00:45:36;;;;;;;;;;;25.20;98.20;;;;;;4195986;28;19932;-69
2022/10/11 00:47:42;;;;;;;;;;;25.30;98.00;;;;;;4196227;28;19935;-69
2022/10/11 00:49:52;;;;;;;;;;;25.40;97.80;;;;;;4195276;28;20010;-70
2022/10/11 00:51:57;;;;;;;;;;;25.20;97.30;;;;;;4195015;28;20605;-70
2022/10/11 00:54:04;;;;;;;;;;;25.20;97.50;;;;;;4194939;28;19929;-70
2022/10/11 00:56:14;;;;;;;;;;;25.30;97.30;;;;;;4195923;28;19932;-70
2022/10/11 00:58:17;;;;;;;;;;;25.30;97.10;;;;;;4167922;28;20290;-70
2022/10/11 01:00:22;;;;;;;;;;;25.40;97.00;;;;;;4196444;28;19988;-70
2022/10/11 01:02:29;;;;;;;;;;;25.40;97.00;;;;;;4193137;28;20337;-69
2022/10/11 01:04:33;;;;;;;;;;;25.40;96.80;;;;;;4188832;28;19993;-69
2022/10/11 01:06:40;;;;;;;;;;;25.30;97.20;;;;;;4195396;28;19935;-70
2022/10/11 01:08:44;;;;;;;;;;;25.20;96.50;;;;;;4213065;28;20278;-70
2022/10/11 01:10:48;;;;;;;;;;;25.40;97.30;;;;;;4198535;28;19928;-70
2022/10/11 01:13:04;;;;;;;;;;;25.50;96.90;;;;;;4196226;28;20569;-69
2022/10/11 01:15:22;;;;;;;;;;;25.60;96.10;;;;;;4197171;28;19932;-70
2022/10/11 01:17:40;;;;;;;;;;;25.60;96.10;;;;;;4179711;28;19951;-70
2022/10/11 01:19:50;;;;;;;;;;;25.50;95.90;;;;;;4195166;28;19932;-70
2022/10/11 01:22:08;;;;;;;;;;;25.60;96.00;;;;;;4197252;28;19929;-70
2022/10/11 01:24:23;;;;;;;;;;;25.80;95.80;;;;;;4197308;28;19936;-69
2022/10/11 01:26:39;;;;;;;;;;;25.90;95.60;;;;;;4165730;28;20024;-70
2022/10/11 01:28:56;;;;;;;;;;;26.00;95.70;;;;;;4163687;28;20395;-70
2022/10/11 01:31:05;;;;;;;;;;;26.00;95.40;;;;;;4177172;28;20674;-69
2022/10/11 01:33:16;;;;;;;;;;;26.00;94.80;;;;;;4162214;28;19952;-70
2022/10/11 01:35:22;;;;;;;;;;;26.10;94.80;;;;;;4161431;28;19964;-69
2022/10/11 01:37:32;;;;;;;;;;;26.20;95.20;;;;;;4162730;28;19937;-69
2022/10/11 01:39:37;;;;;;;;;;;26.10;94.20;;;;;;4145544;28;19976;-70
2022/10/11 01:41:46;;;;;;;;;;;26.00;94.30;;;;;;4162363;28;19962;-69
2022/10/11 01:43:56;;;;;;;;;;;26.00;94.30;;;;;;4178430;28;19933;-70
2022/10/11 01:46:00;;;;;;;;;;;26.00;94.80;;;;;;4175810;28;20499;-69
2022/10/11 01:48:07;;;;;;;;;;;26.10;94.40;;;;;;4177227;28;19971;-70
2022/10/11 01:50:24;;;;;;;;;;;26.10;94.40;;;;;;4161679;28;19979;-70
2022/10/11 01:52:30;;;;;;;;;;;25.90;94.50;;;;;;4162232;28;19984;-69
2022/10/11 01:54:47;;;;;;;;;;;26.00;94.90;;;;;;4161752;28;20704;-70
2022/10/11 01:57:22;;;;;;;;;;;26.00;94.20;;;;;;4159969;28;19929;-70
2022/10/11 01:59:31;;;;;;;;;;;26.10;94.60;;;;;;4162911;28;19929;-69
2022/10/11 02:01:38;;;;;;;;;;;26.20;94.30;;;;;;4155136;28;20375;-69
2022/10/11 02:03:45;;;;;;;;;;;26.30;94.10;;;;;;4161718;28;20338;-69
2022/10/11 02:05:59;;;;;;;;;;;26.40;94.80;;;;;;4162146;28;19925;-69
2022/10/11 02:08:23;;;;;;;;;;;26.40;94.30;;;;;;4161549;28;19975;-69
2022/10/11 02:10:28;;;;;;;;;;;26.40;94.70;;;;;;4162467;28;20304;-69
2022/10/11 02:12:33;;;;;;;;;;;26.50;94.40;;;;;;4162308;28;19988;-69
2022/10/11 02:14:38;;;;;;;;;;;26.50;94.50;;;;;;4161284;28;19955;-71
2022/10/11 02:16:53;;;;;;;;;;;26.50;95.10;;;;;;4178579;28;19928;-70
2022/10/11 02:19:00;;;;;;;;;;;26.40;94.90;;;;;;4159912;28;19955;-70
2022/10/11 02:21:07;;;;;;;;;;;26.40;94.60;;;;;;4160810;28;19936;-69
2022/10/11 02:23:14;;;;;;;;;;;26.60;94.50;;;;;;4157690;28;19933;-69
2022/10/11 02:25:20;;;;;;;;;;;26.70;93.90;;;;;;4163227;28;20363;-70
2022/10/11 02:27:26;;;;;;;;;;;26.60;93.90;;;;;;4176237;28;19928;-69
2022/10/11 02:29:32;;;;;;;;;;;26.50;93.70;;;;;;4176475;28;19928;-70
2022/10/11 02:31:39;;;;;;;;;;;26.60;93.30;;;;;;4174288;28;20681;-69
2022/10/11 02:33:47;;;;;;;;;;;26.80;93.50;;;;;;4175648;28;19971;-70
2022/10/11 02:35:55;;;;;;;;;;;26.90;93.30;;;;;;4176095;28;19925;-69
2022/10/11 02:38:02;;;;;;;;;;;26.90;93.30;;;;;;4174839;28;19933;-69
2022/10/11 02:40:09;;;;;;;;;;;27.00;93.10;;;;;;4176077;28;19925;-70
2022/10/11 02:42:16;;;;;;;;;;;27.00;93.10;;;;;;4176272;28;20960;-69
2022/10/11 02:44:40;;;;;;;;;;;27.00;92.90;;;;;;4176219;28;19932;-69
2022/10/11 02:46:46;;;;;;;;;;;27.10;93.10;;;;;;4175203;28;20743;-69
2022/10/11 02:49:00;;;;;;;;;;;27.10;92.90;;;;;;4173396;28;20012;-69
2022/10/11 02:51:07;;;;;;;;;;;27.00;93.20;;;;;;4175938;28;19971;-69
2022/10/11 02:53:14;;;;;;;;;;;27.10;93.40;;;;;;4157552;28;19941;-69
2022/10/11 02:55:20;;;;;;;;;;;27.20;92.90;;;;;;4162338;28;19930;-69
2022/10/11 02:57:29;;;;;;;;;;;27.20;92.80;;;;;;4162002;28;20036;-67
2022/10/11 02:59:34;;;;;;;;;;;27.00;92.80;;;;;;4163989;28;20032;-70
2022/10/11 03:01:38;;;;;;;;;;;27.10;93.00;;;;;;4160787;28;20036;-70
2022/10/11 03:03:49;;;;;;;;;;;27.20;92.90;;;;;;4144669;28;19929;-69
2022/10/11 03:05:59;;;;;;;;;;;27.30;92.90;;;;;;4159627;28;19929;-70
2022/10/11 03:08:03;;;;;;;;;;;27.40;92.80;;;;;;4161361;28;19960;-69
2022/10/11 03:10:12;;;;;;;;;;;27.50;92.70;;;;;;4161472;28;19925;-70
2022/10/11 03:12:34;;;;;;;;;;;27.50;92.90;;;;;;4159102;28;19937;-69
2022/10/11 03:14:43;;;;;;;;;;;27.50;92.80;;;;;;4143838;28;19933;-69
2022/10/11 03:16:51;;;;;;;;;;;27.70;92.70;;;;;;4175683;28;19935;-69
2022/10/11 03:19:14;;;;;;;;;;;27.70;92.70;;;;;;4161068;28;19936;-69
2022/10/11 03:21:23;;;;;;;;;;;27.80;92.40;;;;;;4161322;28;19925;-69
2022/10/11 03:23:31;;;;;;;;;;;27.70;92.60;;;;;;4161286;28;19940;-69
2022/10/11 03:25:38;;;;;;;;;;;27.70;92.10;;;;;;4145088;28;20040;-69
2022/10/11 03:27:42;;;;;;;;;;;27.80;91.60;;;;;;4152181;28;19925;-69
2022/10/11 03:29:54;;;;;;;;;;;27.80;91.60;;;;;;4169081;28;20005;-69
2022/10/11 03:32:00;;;;;;;;;;;27.90;92.00;;;;;;4164287;28;19925;-69
2022/10/11 03:34:04;;;;;;;;;;;27.90;91.90;;;;;;4169864;28;19933;-69
2022/10/11 03:36:10;;;;;;;;;;;28.00;91.80;;;;;;4168856;28;19943;-69
2022/10/11 03:38:17;;;;;;;;;;;28.00;92.00;;;;;;4169548;28;20374;-69
2022/10/11 03:40:21;;;;;;;;;;;28.00;91.90;;;;;;4184534;28;19928;-69
2022/10/11 03:42:27;;;;;;;;;;;27.90;91.60;;;;;;4169885;28;19947;-69
2022/10/11 03:44:34;;;;;;;;;;;28.00;91.80;;;;;;4169977;28;19969;-69
2022/10/11 03:46:37;;;;;;;;;;;28.10;91.30;;;;;;4169308;28;19928;-70
2022/10/11 03:48:43;;;;;;;;;;;28.00;91.00;;;;;;4170218;28;20407;-69
2022/10/11 03:50:49;;;;;;;;;;;28.00;91.40;;;;;;4169578;28;19929;-69
2022/10/11 03:52:53;;;;;;;;;;;28.00;91.80;;;;;;4169838;28;19933;-69
2022/10/11 03:54:59;;;;;;;;;;;28.10;91.70;;;;;;4177109;28;19982;-69
2022/10/11 03:57:06;;;;;;;;;;;28.20;91.80;;;;;;4151042;28;20069;-69
2022/10/11 03:59:11;;;;;;;;;;;28.30;91.50;;;;;;4168496;28;19962;-70
2022/10/11 04:01:21;;;;;;;;;;;28.30;91.20;;;;;;4171118;28;19935;-69
2022/10/11 04:03:35;;;;;;;;;;;28.40;91.40;;;;;;4172306;28;19936;-69
2022/10/11 04:05:39;;;;;;;;;;;28.40;90.80;;;;;;4155236;28;19929;-69
2022/10/11 04:07:45;;;;;;;;;;;28.40;90.70;;;;;;4171371;28;19932;-70
2022/10/11 04:09:51;;;;;;;;;;;28.20;90.20;;;;;;4172729;28;19929;-69
2022/10/11 04:11:55;;;;;;;;;;;28.20;90.80;;;;;;4161932;28;19929;-69
2022/10/11 04:14:01;;;;;;;;;;;28.30;90.50;;;;;;4149396;28;19932;-69
2022/10/11 04:16:05;;;;;;;;;;;28.40;90.40;;;;;;4169130;28;20402;-69
2022/10/11 04:18:14;;;;;;;;;;;28.60;90.50;;;;;;4170887;28;19937;-69
2022/10/11 04:20:23;;;;;;;;;;;28.60;89.90;;;;;;4152509;28;19936;-69
2022/10/11 04:22:27;;;;;;;;;;;28.70;89.60;;;;;;4155762;28;19937;-69
2022/10/11 04:24:31;;;;;;;;;;;28.80;89.30;;;;;;4166140;28;19929;-69
2022/10/11 04:26:35;;;;;;;;;;;28.50;89.50;;;;;;4187782;28;19928;-69
2022/10/11 04:28:39;;;;;;;;;;;28.60;90.00;;;;;;4173786;28;19933;-69
2022/10/11 04:30:44;;;;;;;;;;;28.80;89.80;;;;;;4177765;28;19928;-69
2022/10/11 04:32:49;;;;;;;;;;;28.80;89.80;;;;;;4191901;28;19924;-70
2022/10/11 04:34:54;;;;;;;;;;;28.70;90.10;;;;;;4196216;28;19928;-69
2022/10/11 04:36:58;;;;;;;;;;;28.60;89.80;;;;;;4179102;28;20395;-69
2022/10/11 04:39:04;;;;;;;;;;;28.70;90.00;;;;;;4174933;28;19925;-69
2022/10/11 04:41:11;;;;;;;;;;;28.70;90.10;;;;;;4192431;28;19940;-69
2022/10/11 04:43:17;;;;;;;;;;;28.60;90.10;;;;;;4196073;28;20020;-69
2022/10/11 04:45:23;;;;;;;;;;;28.80;89.90;;;;;;4179253;28;19936;-69
2022/10/11 04:47:29;;;;;;;;;;;28.70;89.40;;;;;;4196706;28;19931;-69
2022/10/11 04:49:33;;;;;;;;;;;28.60;90.00;;;;;;4196636;28;19929;-69
2022/10/11 04:51:37;;;;;;;;;;;28.70;90.00;;;;;;4195224;28;19966;-70
2022/10/11 04:53:43;;;;;;;;;;;28.80;88.70;;;;;;4197320;28;19928;-70
2022/10/11 04:55:59;;;;;;;;;;;29.00;88.20;;;;;;4196065;28;19978;-70
2022/10/11 04:58:06;;;;;;;;;;;29.00;88.70;;;;;;4195483;28;20383;-70
2022/10/11 05:00:17;;;;;;;;;;;29.00;89.20;;;;;;4177931;28;19937;-70
2022/10/11 05:02:21;;;;;;;;;;;29.10;88.40;;;;;;4196664;28;20015;-69
2022/10/11 05:04:28;;;;;;;;;;;29.10;89.70;;;;;;4195501;28;19981;-69
2022/10/11 05:06:34;;;;;;;;;;;29.20;89.60;;;;;;4176753;28;19998;-70
2022/10/11 05:08:38;;;;;;;;;;;29.20;88.00;;;;;;4196758;28;20355;-70
2022/10/11 05:10:44;;;;;;;;;;;29.20;88.60;;;;;;4195357;28;19924;-70
2022/10/11 05:12:50;;;;;;;;;;;29.30;86.80;;;;;;4195445;28;19925;-70
2022/10/11 05:14:54;;;;;;;;;;;29.30;87.90;;;;;;4178776;28;19971;-70
2022/10/11 05:17:00;;;;;;;;;;;29.20;88.90;;;;;;4196062;28;19932;-70
2022/10/11 05:19:04;;;;;;;;;;;29.20;89.10;;;;;;4178504;28;19929;-71
2022/10/11 05:21:17;;;;;;;;;;;29.10;89.50;;;;;;4178725;28;19991;-70
2022/10/11 05:23:23;;;;;;;;;;;29.10;89.80;;;;;;4178226;28;19925;-70
2022/10/11 05:25:29;;;;;;;;;;;29.20;90.20;;;;;;4193054;28;20011;-71
2022/10/11 05:27:33;;;;;;;;;;;29.10;89.20;;;;;;4191836;28;19932;-70
2022/10/11 05:29:37;;;;;;;;;;;29.20;89.30;;;;;;4162182;28;20434;-70
2022/10/11 05:31:42;;;;;;;;;;;29.30;89.20;;;;;;4162424;28;20556;-69
2022/10/11 05:33:45;;;;;;;;;;;29.40;88.00;;;;;;4163260;28;19948;-70
2022/10/11 05:35:52;;;;;;;;;;;29.50;88.10;;;;;;4161545;28;19925;-70
2022/10/11 05:37:58;;;;;;;;;;;29.40;88.50;;;;;;4163357;28;19972;-71
2022/10/11 05:40:02;;;;;;;;;;;29.30;87.00;;;;;;4162706;28;19940;-70
2022/10/11 05:42:08;;;;;;;;;;;29.50;88.70;;;;;;4165107;28;19925;-71
2022/10/11 05:44:15;;;;;;;;;;;29.50;87.80;;;;;;4160265;28;20423;-70
2022/10/11 05:46:19;;;;;;;;;;;29.30;87.90;;;;;;4161286;28;19969;-70
2022/10/11 05:48:25;;;;;;;;;;;29.40;87.60;;;;;;4161499;28;19933;-70
2022/10/11 05:50:32;;;;;;;;;;;29.20;87.80;;;;;;4161435;28;19939;-70
2022/10/11 05:52:36;;;;;;;;;;;29.30;88.80;;;;;;4162757;28;19929;-70
2022/10/11 05:54:42;;;;;;;;;;;29.30;89.60;;;;;;4160997;28;19980;-71
2022/10/11 05:56:48;;;;;;;;;;;29.40;89.10;;;;;;4161199;28;19925;-70
2022/10/11 05:58:52;;;;;;;;;;;29.50;87.50;;;;;;4159962;28;19925;-71
2022/10/11 06:01:05;;;;;;;;;;;29.50;88.40;;;;;;4158930;28;20477;-71
2022/10/11 06:03:10;;;;;;;;;;;29.70;88.10;;;;;;4160309;28;19933;-71
2022/10/11 06:05:14;;;;;;;;;;;29.70;88.80;;;;;;4161164;28;19983;-70
2022/10/11 06:07:20;;;;;;;;;;;29.70;87.00;;;;;;4163245;28;19956;-71
2022/10/11 06:09:26;;;;;;;;;;;29.70;87.80;;;;;;4163066;28;19925;-71
2022/10/11 06:11:30;;;;;;;;;;;29.70;87.30;;;;;;4161716;28;20391;-71
2022/10/11 06:13:36;;;;;;;;;;;29.50;87.20;;;;;;4160456;28;19983;-72
2022/10/11 06:15:42;;;;;;;;;;;29.50;88.70;;;;;;4161365;28;19961;-72
2022/10/11 06:17:46;;;;;;;;;;;29.60;89.00;;;;;;4159897;28;20012;-72
2022/10/11 06:19:52;;;;;;;;;;;29.80;89.00;;;;;;4160086;28;19968;-71
2022/10/11 06:21:58;;;;;;;;;;;29.80;87.60;;;;;;4164630;28;19929;-71
2022/10/11 06:24:02;;;;;;;;;;;29.80;87.70;;;;;;4172561;28;19979;-71
2022/10/11 06:26:08;;;;;;;;;;;29.90;87.60;;;;;;4167037;28;20562;-70
2022/10/11 06:28:14;;;;;;;;;;;29.90;87.60;;;;;;4169958;28;20388;-72
2022/10/11 06:30:18;;;;;;;;;;;30.00;87.50;;;;;;4169680;28;19936;-71
2022/10/11 06:32:22;;;;;;;;;;;30.00;87.60;;;;;;4170263;28;19929;-71
2022/10/11 06:34:26;;;;;;;;;;;30.10;87.70;;;;;;4185181;28;19932;-71
2022/10/11 06:36:30;;;;;;;;;;;30.10;88.60;;;;;;4163943;28;19925;-71
2022/10/11 06:38:34;;;;;;;;;;;30.10;88.10;;;;;;4167561;28;19980;-71
2022/10/11 06:40:47;;;;;;;;;;;30.20;87.90;;;;;;4153607;28;19925;-71
2022/10/11 06:42:51;;;;;;;;;;;30.20;86.90;;;;;;4167804;28;19924;-71
2022/10/11 06:44:57;;;;;;;;;;;30.20;86.90;;;;;;4171907;28;19928;-70
2022/10/11 06:47:04;;;;;;;;;;;30.30;88.00;;;;;;4169939;28;19972;-69
2022/10/11 06:49:08;;;;;;;;;;;30.30;87.60;;;;;;4170198;28;20279;-70
2022/10/11 06:51:14;;;;;;;;;;;30.30;86.80;;;;;;4169311;28;19933;-70
2022/10/11 06:53:20;;;;;;;;;;;30.20;87.70;;;;;;4184743;28;19935;-70
2022/10/11 06:55:25;;;;;;;;;;;30.30;87.60;;;;;;4172616;28;19971;-70
2022/10/11 06:57:29;;;;;;;;;;;30.30;87.20;;;;;;4178372;28;20434;-70
2022/10/11 06:59:33;;;;;;;;;;;30.30;87.00;;;;;;4160537;28;19937;-70
2022/10/11 07:01:37;;;;;;;;;;;30.30;87.60;;;;;;4169521;28;19939;-70
2022/10/11 07:03:41;;;;;;;;;;;30.30;87.30;;;;;;4167385;28;20016;-70
2022/10/11 07:05:44;;;;;;;;;;;30.30;87.20;;;;;;4151989;28;19932;-70
2022/10/11 07:07:48;;;;;;;;;;;30.30;86.90;;;;;;4169640;28;19964;-71
2022/10/11 07:09:55;;;;;;;;;;;30.30;86.30;;;;;;4169714;28;20006;-70
2022/10/11 07:12:01;;;;;;;;;;;30.40;86.50;;;;;;4169716;28;20283;-70
2022/10/11 07:14:06;;;;;;;;;;;30.40;86.80;;;;;;4166342;28;19983;-70
2022/10/11 07:16:12;;;;;;;;;;;30.50;87.10;;;;;;4169764;28;19956;-71
2022/10/11 07:18:19;;;;;;;;;;;30.50;87.50;;;;;;4151043;28;20100;-72
2022/10/11 07:20:23;;;;;;;;;;;30.50;87.60;;;;;;4182828;28;19928;-72
2022/10/11 07:22:29;;;;;;;;;;;30.50;87.30;;;;;;4194033;28;19931;-72
2022/10/11 07:24:35;;;;;;;;;;;30.60;86.80;;;;;;4174879;28;20047;-72
2022/10/11 07:26:41;;;;;;;;;;;30.60;86.10;;;;;;4192606;28;20748;-72
2022/10/11 07:28:48;;;;;;;;;;;30.60;85.90;;;;;;4176013;28;19933;-72
2022/10/11 07:31:03;;;;;;;;;;;30.50;85.40;;;;;;4194500;28;20390;-72
2022/10/11 07:33:08;;;;;;;;;;;30.30;87.80;;;;;;4193231;28;19928;-71
2022/10/11 07:35:16;;;;;;;;;;;30.20;87.80;;;;;;4197061;28;19924;-72
2022/10/11 07:37:22;;;;;;;;;;;29.90;85.90;;;;;;4197360;28;20019;-72
2022/10/11 07:39:26;;;;;;;;;;;29.90;87.00;;;;;;4200307;28;19932;-71
2022/10/11 07:41:32;;;;;;;;;;;30.10;87.30;;;;;;4183038;28;20012;-72
2022/10/11 07:43:37;;;;;;;;;;;30.10;87.70;;;;;;4199380;28;19964;-72
2022/10/11 07:45:43;;;;;;;;;;;30.20;87.70;;;;;;4195788;28;19932;-73
2022/10/11 07:47:49;;;;;;;;;;;30.20;88.00;;;;;;4198694;28;19931;-72
2022/10/11 07:49:55;;;;;;;;;;;30.20;87.60;;;;;;4182077;28;20008;-72
2022/10/11 07:51:59;;;;;;;;;;;30.20;87.00;;;;;;4199853;28;20015;-72
2022/10/11 07:54:05;;;;;;;;;;;30.10;86.70;;;;;;4181820;28;19929;-73
2022/10/11 07:56:11;;;;;;;;;;;30.20;87.20;;;;;;4181888;28;20423;-74
2022/10/11 07:58:15;;;;;;;;;;;30.20;88.80;;;;;;4198984;28;19967;-74
2022/10/11 08:00:21;;;;;;;;;;;30.20;88.60;;;;;;4199297;28;20437;-73
2022/10/11 08:02:29;;;;;;;;;;;30.30;89.00;;;;;;4198663;28;20428;-72
2022/10/11 08:04:33;;;;;;;;;;;30.20;88.30;;;;;;4200557;28;20031;-71
2022/10/11 08:06:40;;;;;;;;;;;30.20;88.60;;;;;;4198472;28;19925;-73
2022/10/11 08:08:46;;;;;;;;;;;30.20;88.30;;;;;;4184137;28;20153;-73
2022/10/11 08:10:50;;;;;;;;;;;30.20;88.90;;;;;;4184804;28;19935;-73
2022/10/11 08:12:55;;;;;;;;;;;30.20;88.40;;;;;;4200232;28;19924;-72
2022/10/11 08:15:07;;;;;;;;;;;30.20;88.10;;;;;;4200649;28;19974;-73
2022/10/11 08:17:11;;;;;;;;;;;30.20;87.90;;;;;;4200315;28;19958;-73
2022/10/11 08:19:17;;;;;;;;;;;30.20;87.90;;;;;;4195815;28;20447;-72
2022/10/11 08:21:21;;;;;;;;;;;30.30;87.70;;;;;;4199107;28;19925;-72
2022/10/11 08:23:25;;;;;;;;;;;30.30;88.40;;;;;;4200975;28;19928;-71
2022/10/11 08:25:29;;;;;;;;;;;30.40;88.80;;;;;;4200012;28;19934;-72
2022/10/11 08:27:33;;;;;;;;;;;30.40;89.00;;;;;;4199312;28;19924;-72
2022/10/11 08:29:37;;;;;;;;;;;30.40;88.60;;;;;;4200361;28;19951;-71
2022/10/11 08:31:44;;;;;;;;;;;30.40;88.70;;;;;;4200215;28;20319;-71
2022/10/11 08:33:48;;;;;;;;;;;30.40;88.20;;;;;;4200551;28;20033;-71
2022/10/11 08:35:56;;;;;;;;;;;30.50;88.10;;;;;;4199605;28;19963;-72
2022/10/11 08:37:59;;;;;;;;;;;30.40;87.60;;;;;;4198598;28;19968;-70
2022/10/11 08:40:06;;;;;;;;;;;30.30;87.10;;;;;;4199951;28;19924;-72
2022/10/11 08:42:23;;;;;;;;;;;30.40;87.50;;;;;;4200893;28;20282;-71
2022/10/11 08:44:31;;;;;;;;;;;30.40;88.10;;;;;;4200846;28;19986;-72
2022/10/11 08:46:59;;;;;;;;;;;30.40;89.30;;;;;;4161899;28;20303;-71
2022/10/11 08:49:03;;;;;;;;;;;30.30;88.50;;;;;;4163004;28;19925;-71
2022/10/11 08:51:27;;;;;;;;;;;30.40;88.70;;;;;;4145177;28;19929;-71
2022/10/11 08:53:40;;;;;;;;;;;30.40;88.60;;;;;;4094819;29;19927;-71
2022/10/11 08:55:47;;;;;;;;;;;30.30;88.50;;;;;;4114059;28;20456;-71
2022/10/11 08:57:54;;;;;;;;;;;30.40;89.00;;;;;;4128520;28;19969;-71
2022/10/11 09:00:08;;;;;;;;;;;30.40;89.60;;;;;;4128947;28;20282;-71
2022/10/11 09:02:15;;;;;;;;;;;30.40;90.10;;;;;;4128747;28;19930;-71
2022/10/11 09:04:21;;;;;;;;;;;30.40;90.30;;;;;;4112653;28;19930;-71
2022/10/11 09:06:36;;;;;;;;;;;30.50;90.50;;;;;;4127991;28;19933;-71
2022/10/11 09:08:46;;;;;;;;;;;30.40;90.90;;;;;;4127420;28;20594;-71
2022/10/11 09:11:02;;;;;;;;;;;30.50;90.90;;;;;;4128556;28;19933;-72
2022/10/11 09:13:13;;;;;;;;;;;30.40;91.00;;;;;;4127408;28;20412;-71
2022/10/11 09:15:19;;;;;;;;;;;30.40;90.90;;;;;;4128607;28;19969;-71
2022/10/11 09:17:26;;;;;;;;;;;30.40;91.00;;;;;;4112772;28;19958;-71
2022/10/11 09:19:41;;;;;;;;;;;30.30;91.10;;;;;;4128624;28;19929;-71
2022/10/11 09:22:04;;;;;;;;;;;30.20;91.10;;;;;;4130267;28;19976;-71
2022/10/11 09:24:15;;;;;;;;;;;30.20;91.20;;;;;;4167237;28;19935;-72
2022/10/11 09:26:19;;;;;;;;;;;30.10;91.10;;;;;;4198153;28;20402;-71
2022/10/11 09:28:29;;;;;;;;;;;30.20;91.20;;;;;;4196271;28;19929;-72
2022/10/11 09:30:45;;;;;;;;;;;30.10;91.20;;;;;;4177637;28;20039;-72
2022/10/11 09:33:01;;;;;;;;;;;30.10;91.20;;;;;;4179630;28;20406;-71
2022/10/11 09:35:16;;;;;;;;;;;30.20;91.30;;;;;;4178256;28;19928;-71
2022/10/11 09:37:33;;;;;;;;;;;30.20;91.50;;;;;;4195383;28;19928;-71
2022/10/11 09:39:43;;;;;;;;;;;30.20;91.50;;;;;;4195305;28;19928;-72
2022/10/11 09:41:53;;;;;;;;;;;30.20;91.50;;;;;;4179129;28;19937;-71
2022/10/11 09:43:59;;;;;;;;;;;30.20;91.40;;;;;;4195073;28;19932;-71
2022/10/11 09:46:16;;;;;;;;;;;30.10;91.50;;;;;;4178457;28;19931;-72
2022/10/11 09:48:22;;;;;;;;;;;30.10;91.50;;;;;;4195988;28;19930;-72
2022/10/11 09:50:29;;;;;;;;;;;30.20;91.60;;;;;;4194568;28;20068;-72
2022/10/11 09:52:35;;;;;;;;;;;30.10;91.50;;;;;;4194602;28;19983;-72
2022/10/11 09:54:39;;;;;;;;;;;30.10;91.40;;;;;;4177551;28;19935;-72
2022/10/11 09:56:45;;;;;;;;;;;30.10;91.50;;;;;;4177159;28;19929;-72
2022/10/11 09:59:04;;;;;;;;;;;30.10;91.50;;;;;;4177299;28;19928;-72
2022/10/11 10:01:10;;;;;;;;;;;30.10;91.40;;;;;;4175120;28;19933;-71
2022/10/11 10:03:25;;;;;;;;;;;30.10;91.50;;;;;;4177246;28;19933;-72
2022/10/11 10:05:35;;;;;;;;;;;30.00;91.30;;;;;;4156592;28;19932;-71
2022/10/11 10:07:39;;;;;;;;;;;30.00;91.30;;;;;;4157413;28;19929;-72
2022/10/11 10:09:44;;;;;;;;;;;30.00;91.40;;;;;;4174083;28;20008;-72
2022/10/11 10:11:50;;;;;;;;;;;29.90;91.50;;;;;;4176363;28;19925;-71
2022/10/11 10:13:54;;;;;;;;;;;29.90;91.60;;;;;;4176927;28;20383;-72
2022/10/11 10:16:02;;;;;;;;;;;29.90;91.70;;;;;;4177911;28;20504;-72
2022/10/11 10:18:13;;;;;;;;;;;29.80;91.50;;;;;;4177662;28;19972;-71
2022/10/11 10:20:35;;;;;;;;;;;29.70;91.50;;;;;;4176896;28;19935;-71
2022/10/11 10:22:41;;;;;;;;;;;29.70;91.80;;;;;;4177333;28;19929;-72
2022/10/11 10:24:48;;;;;;;;;;;29.70;91.60;;;;;;4178001;28;19925;-71
2022/10/11 10:27:04;;;;;;;;;;;29.70;91.50;;;;;;4178473;28;20035;-72
2022/10/11 10:29:10;;;;;;;;;;;29.60;91.50;;;;;;4196026;28;20023;-72
2022/10/11 10:31:20;;;;;;;;;;;29.60;91.70;;;;;;4179193;28;19929;-72
2022/10/11 10:33:25;;;;;;;;;;;29.50;91.90;;;;;;4178014;28;19931;-71
2022/10/11 10:35:49;;;;;;;;;;;29.50;92.10;;;;;;4177736;28;20008;-72
2022/10/11 10:38:05;;;;;;;;;;;29.40;92.10;;;;;;4179337;28;19971;-73
2022/10/11 10:40:17;;;;;;;;;;;29.40;92.10;;;;;;4179319;28;19931;-73
2022/10/11 10:42:24;;;;;;;;;;;29.40;92.10;;;;;;4178588;28;20281;-73
2022/10/11 10:44:31;;;;;;;;;;;29.40;92.30;;;;;;4179522;28;19924;-74
2022/10/11 10:46:38;;;;;;;;;;;29.30;92.30;;;;;;4179049;28;19925;-73
2022/10/11 10:48:51;;;;;;;;;;;29.30;92.50;;;;;;4178111;28;20605;-72
2022/10/11 10:51:27;;;;;;;;;;;29.20;92.70;;;;;;4155852;28;20305;-73
2022/10/11 10:53:37;;;;;;;;;;;29.10;92.90;;;;;;4147089;28;19937;-73
2022/10/11 10:55:44;;;;;;;;;;;29.10;92.90;;;;;;4160358;28;19929;-72
2022/10/11 10:58:02;;;;;;;;;;;29.10;93.00;;;;;;4160796;28;19929;-72
2022/10/11 11:00:18;;;;;;;;;;;29.10;93.00;;;;;;4160081;28;19975;-73
2022/10/11 11:02:24;;;;;;;;;;;29.10;93.20;;;;;;4159041;28;19928;-72
2022/10/11 11:04:52;;;;;;;;;;;29.00;93.40;;;;;;4139521;28;19992;-72
2022/10/11 11:07:10;;;;;;;;;;;29.00;93.50;;;;;;4144499;28;20520;-73
2022/10/11 11:09:19;;;;;;;;;;;29.00;93.40;;;;;;4144887;28;19926;-72
2022/10/11 11:11:32;;;;;;;;;;;29.00;93.60;;;;;;4134970;28;19930;-73
2022/10/11 11:13:38;;;;;;;;;;;29.00;93.70;;;;;;4133396;28;19941;-72
2022/10/11 11:15:45;;;;;;;;;;;28.90;93.90;;;;;;4170785;28;20612;-72
2022/10/11 11:17:54;;;;;;;;;;;28.80;93.90;;;;;;4176589;28;19935;-73
2022/10/11 11:20:14;;;;;;;;;;;28.90;94.30;;;;;;4160057;28;19952;-73
2022/10/11 11:22:19;;;;;;;;;;;28.90;93.80;;;;;;4160015;28;19933;-72
2022/10/11 11:24:38;;;;;;;;;;;28.80;93.80;;;;;;4160315;28;19925;-71
2022/10/11 11:26:41;;;;;;;;;;;28.90;94.00;;;;;;4159366;28;19929;-72
2022/10/11 11:28:49;;;;;;;;;;;28.90;94.00;;;;;;4172358;28;19935;-71
2022/10/11 11:30:58;;;;;;;;;;;28.90;94.10;;;;;;4194912;28;19928;-72
2022/10/11 11:33:22;;;;;;;;;;;28.80;94.10;;;;;;4195432;28;19936;-72
2022/10/11 11:35:32;;;;;;;;;;;28.80;94.20;;;;;;4193749;28;20015;-71
2022/10/11 11:37:38;;;;;;;;;;;28.80;94.40;;;;;;4195302;28;20720;-71
2022/10/11 11:39:45;;;;;;;;;;;28.80;94.50;;;;;;4195444;28;19936;-71
2022/10/11 11:41:58;;;;;;;;;;;28.80;94.40;;;;;;4178059;28;19929;-72
2022/10/11 11:44:10;;;;;;;;;;;28.70;94.50;;;;;;4179238;28;19929;-70
2022/10/11 11:46:18;;;;;;;;;;;28.60;94.60;;;;;;4177537;28;19963;-71
2022/10/11 11:48:24;;;;;;;;;;;28.60;94.70;;;;;;4177912;28;20007;-70
2022/10/11 11:50:39;;;;;;;;;;;28.70;94.80;;;;;;4178082;28;19931;-70
2022/10/11 11:52:44;;;;;;;;;;;28.70;94.90;;;;;;4177729;28;19924;-70
2022/10/11 11:55:00;;;;;;;;;;;28.60;94.80;;;;;;4180871;28;19940;-70
2022/10/11 11:57:13;;;;;;;;;;;28.60;94.80;;;;;;4195615;28;19932;-71
2022/10/11 11:59:23;;;;;;;;;;;28.60;94.80;;;;;;4195410;28;19932;-73
2022/10/11 12:01:28;;;;;;;;;;;28.60;94.80;;;;;;4193638;28;19928;-73
2022/10/11 12:03:42;;;;;;;;;;;28.60;94.80;;;;;;4169628;28;19932;-71
2022/10/11 12:05:58;;;;;;;;;;;28.60;94.80;;;;;;4166397;28;19932;-72
2022/10/11 12:08:07;;;;;;;;;;;28.60;94.80;;;;;;4188831;28;20658;-73
2022/10/11 12:10:23;;;;;;;;;;;28.60;94.70;;;;;;4191237;28;19928;-72
2022/10/11 12:12:28;;;;;;;;;;;28.60;94.60;;;;;;4191831;28;19978;-72
2022/10/11 12:14:34;;;;;;;;;;;28.60;94.50;;;;;;4193515;28;19931;-72
2022/10/11 12:16:53;;;;;;;;;;;28.60;94.50;;;;;;4193265;28;19932;-71
2022/10/11 12:18:56;;;;;;;;;;;28.60;94.50;;;;;;4175192;28;20007;-71
2022/10/11 12:21:16;;;;;;;;;;;28.60;94.60;;;;;;4193054;28;20632;-71
2022/10/11 12:23:28;;;;;;;;;;;28.60;94.80;;;;;;4192868;28;19968;-71
2022/10/11 12:25:34;;;;;;;;;;;28.60;94.90;;;;;;4178556;28;19929;-71